createdAt,value
2019-01-10T00:00:10.087Z,2.79
2019-01-10T00:01:10.034Z,2.87
2019-01-10T00:02:10.066Z,2.89
2019-01-10T00:03:10.001Z,2.81
2019-01-10T00:04:10.001Z,2.81
2019-01-10T00:05:10.079Z,2.78
2019-01-10T00:06:09.958Z,2.77
2019-01-10T00:07:09.943Z,2.78
2019-01-10T00:08:09.941Z,2.79
2019-01-10T00:09:09.924Z,2.78
2019-01-10T00:10:09.939Z,2.79
2019-01-10T00:11:09.908Z,2.72
2019-01-10T00:12:09.898Z,2.75
2019-01-10T00:13:09.887Z,2.71
2019-01-10T00:14:09.875Z,2.74
2019-01-10T00:15:09.882Z,2.74
2019-01-10T00:16:09.848Z,2.74
2019-01-10T00:17:09.837Z,2.71
2019-01-10T00:18:09.826Z,2.75
2019-01-10T00:19:09.823Z,2.72
2019-01-10T00:20:09.831Z,2.60
2019-01-10T00:21:09.803Z,2.64
2019-01-10T00:22:09.790Z,2.69
2019-01-10T00:23:09.767Z,2.64
2019-01-10T00:24:09.773Z,2.64
2019-01-10T00:25:09.757Z,2.69
2019-01-10T00:26:09.759Z,2.66
2019-01-10T00:27:09.730Z,2.64
2019-01-10T00:28:09.713Z,2.64
2019-01-10T00:29:09.700Z,2.64
2019-01-10T00:30:09.693Z,2.60
2019-01-10T00:31:09.717Z,2.64
2019-01-10T00:32:09.668Z,2.67
2019-01-10T00:33:09.663Z,2.61
2019-01-10T00:34:09.646Z,2.67
2019-01-10T00:35:09.713Z,2.71
2019-01-10T00:36:09.643Z,2.59
2019-01-10T00:37:09.614Z,2.61
2019-01-10T00:38:09.605Z,2.64
2019-01-10T00:39:09.596Z,2.60
2019-01-10T00:40:09.582Z,2.60
2019-01-10T00:41:09.592Z,2.54
2019-01-10T00:42:09.567Z,2.49
2019-01-10T00:43:09.547Z,2.56
2019-01-10T00:44:09.536Z,2.56
2019-01-10T00:45:09.529Z,2.49
2019-01-10T00:46:09.548Z,2.54
2019-01-10T00:47:09.513Z,2.52
2019-01-10T00:48:09.500Z,2.56
2019-01-10T00:49:09.487Z,2.53
2019-01-10T00:50:09.466Z,2.46
2019-01-10T00:51:09.603Z,2.53
2019-01-10T00:52:09.454Z,2.56
2019-01-10T00:53:09.434Z,2.54
2019-01-10T00:54:09.428Z,2.45
2019-01-10T00:55:09.444Z,2.41
2019-01-10T00:56:09.429Z,2.42
2019-01-10T00:57:09.394Z,2.46
2019-01-10T00:58:09.373Z,2.45
2019-01-10T00:59:09.366Z,2.49
2019-01-10T01:00:09.358Z,2.52
2019-01-10T01:01:09.370Z,2.43
2019-01-10T01:02:09.331Z,2.46
2019-01-10T01:03:09.323Z,2.49
2019-01-10T01:04:09.315Z,2.46
2019-01-10T01:05:09.299Z,2.49
2019-01-10T01:06:09.313Z,2.42
2019-01-10T01:07:09.283Z,2.46
2019-01-10T01:08:09.338Z,2.42
2019-01-10T01:09:09.258Z,2.43
2019-01-10T01:10:09.245Z,2.46
2019-01-10T01:11:09.236Z,2.52
2019-01-10T01:12:09.244Z,2.42
2019-01-10T01:13:09.222Z,2.43
2019-01-10T01:14:09.202Z,2.46
2019-01-10T01:15:09.194Z,2.45
2019-01-10T01:16:09.181Z,2.48
2019-01-10T01:17:09.185Z,2.42
2019-01-10T01:18:09.157Z,2.49
2019-01-10T01:19:09.150Z,2.46
2019-01-10T01:20:09.135Z,2.43
2019-01-10T01:21:09.134Z,2.43
2019-01-10T01:22:09.124Z,2.53
2019-01-10T01:23:09.100Z,2.45
2019-01-10T01:24:09.093Z,2.45
2019-01-10T01:25:09.081Z,2.49
2019-01-10T01:26:09.067Z,2.46
2019-01-10T01:27:09.070Z,2.53
2019-01-10T01:28:09.044Z,2.48
2019-01-10T01:29:09.032Z,2.56
2019-01-10T01:30:09.027Z,2.53
2019-01-10T01:31:09.011Z,2.49
2019-01-10T01:32:09.014Z,2.54
2019-01-10T01:33:08.987Z,2.59
2019-01-10T01:34:08.982Z,2.42
2019-01-10T01:35:09.003Z,2.46
2019-01-10T01:36:08.958Z,2.57
2019-01-10T01:37:09.055Z,2.56
2019-01-10T01:38:08.955Z,2.59
2019-01-10T01:39:08.924Z,2.45
2019-01-10T01:40:08.918Z,2.53
2019-01-10T01:41:08.903Z,2.54
2019-01-10T01:42:08.888Z,2.53
2019-01-10T01:43:08.918Z,2.49
2019-01-10T01:44:08.922Z,2.52
2019-01-10T01:45:08.861Z,2.49
2019-01-10T01:46:08.846Z,2.56
2019-01-10T01:47:08.838Z,2.56
2019-01-10T01:48:08.872Z,2.48
2019-01-10T01:49:08.814Z,2.59
2019-01-10T01:50:08.802Z,2.43
2019-01-10T01:51:08.801Z,2.42
2019-01-10T01:52:08.887Z,2.57
2019-01-10T01:53:08.788Z,2.52
2019-01-10T01:54:08.753Z,2.53
2019-01-10T01:55:08.747Z,2.52
2019-01-10T01:56:08.736Z,2.45
2019-01-10T01:57:08.726Z,2.43
2019-01-10T01:58:08.738Z,2.46
2019-01-10T01:59:08.701Z,2.60
2019-01-10T02:00:08.696Z,2.56
2019-01-10T02:01:08.675Z,2.52
2019-01-10T02:02:08.669Z,2.45
2019-01-10T02:03:08.676Z,2.49
2019-01-10T02:04:08.650Z,2.48
2019-01-10T02:05:08.631Z,2.45
2019-01-10T02:06:08.620Z,2.53
2019-01-10T02:07:08.613Z,2.46
2019-01-10T02:08:08.616Z,2.43
2019-01-10T02:09:08.588Z,2.43
2019-01-10T02:10:08.603Z,2.42
2019-01-10T02:11:08.564Z,2.46
2019-01-10T02:12:08.553Z,2.54
2019-01-10T02:13:16.524Z,2.49
2019-01-10T02:14:09.530Z,2.52
2019-01-10T02:15:08.521Z,2.49
2019-01-10T02:16:08.512Z,2.45
2019-01-10T02:17:08.502Z,2.48
2019-01-10T02:18:08.506Z,2.46
2019-01-10T02:19:08.476Z,2.42
2019-01-10T02:20:08.473Z,2.45
2019-01-10T02:21:08.457Z,2.45
2019-01-10T02:22:08.442Z,2.48
2019-01-10T02:23:08.462Z,2.49
2019-01-10T02:24:08.420Z,2.46
2019-01-10T02:25:08.406Z,2.45
2019-01-10T02:26:08.401Z,2.46
2019-01-10T02:27:08.394Z,2.45
2019-01-10T02:28:08.391Z,2.48
2019-01-10T02:29:08.359Z,2.39
2019-01-10T02:30:08.350Z,2.39
2019-01-10T02:31:08.354Z,2.41
2019-01-10T02:32:08.330Z,2.30
2019-01-10T02:33:08.349Z,2.30
2019-01-10T02:34:08.309Z,2.39
2019-01-10T02:35:08.312Z,2.28
2019-01-10T02:36:08.297Z,2.25
2019-01-10T02:37:08.279Z,2.30
2019-01-10T02:38:08.272Z,2.27
2019-01-10T02:39:08.277Z,2.30
2019-01-10T02:40:08.247Z,2.31
2019-01-10T02:41:08.250Z,2.38
2019-01-10T02:42:08.228Z,2.28
2019-01-10T02:43:08.215Z,2.34
2019-01-10T02:44:08.217Z,2.41
2019-01-10T02:45:08.187Z,2.27
2019-01-10T02:46:08.175Z,2.31
2019-01-10T02:47:08.164Z,2.31
2019-01-10T02:48:08.154Z,2.39
2019-01-10T02:49:08.160Z,2.35
2019-01-10T02:50:08.128Z,2.27
2019-01-10T02:51:08.128Z,2.28
2019-01-10T02:52:08.113Z,2.31
2019-01-10T02:53:08.093Z,2.41
2019-01-10T02:54:08.102Z,2.36
2019-01-10T02:55:08.073Z,2.42
2019-01-10T02:56:08.064Z,2.36
2019-01-10T02:57:08.054Z,2.43
2019-01-10T02:58:08.042Z,2.30
2019-01-10T02:59:08.068Z,2.36
2019-01-10T03:00:08.019Z,2.38
2019-01-10T03:01:08.019Z,2.36
2019-01-10T03:02:08.000Z,2.31
2019-01-10T03:03:07.987Z,2.39
2019-01-10T03:04:08.016Z,2.39
2019-01-10T03:05:07.965Z,2.31
2019-01-10T03:06:07.955Z,2.30
2019-01-10T03:07:07.953Z,2.27
2019-01-10T03:08:07.974Z,2.39
2019-01-10T03:09:07.956Z,2.31
2019-01-10T03:10:07.921Z,2.28
2019-01-10T03:11:07.903Z,2.41
2019-01-10T03:12:07.891Z,2.41
2019-01-10T03:13:07.878Z,2.31
2019-01-10T03:14:07.867Z,2.41
2019-01-10T03:15:07.876Z,2.43
2019-01-10T03:16:07.847Z,2.31
2019-01-10T03:17:07.838Z,2.30
2019-01-10T03:18:07.823Z,2.34
2019-01-10T03:19:07.813Z,2.31
2019-01-10T03:20:07.825Z,2.31
2019-01-10T03:21:07.786Z,2.35
2019-01-10T03:22:07.776Z,2.31
2019-01-10T03:23:07.767Z,2.30
2019-01-10T03:24:07.891Z,2.38
2019-01-10T03:25:07.759Z,2.36
2019-01-10T03:26:07.733Z,2.30
2019-01-10T03:27:07.722Z,2.41
2019-01-10T03:28:07.706Z,2.31
2019-01-10T03:29:07.705Z,2.39
2019-01-10T03:30:07.717Z,2.42
2019-01-10T03:31:07.681Z,2.31
2019-01-10T03:32:07.667Z,2.31
2019-01-10T03:33:07.659Z,2.34
2019-01-10T03:34:07.645Z,2.41
2019-01-10T03:35:07.655Z,2.43
2019-01-10T03:36:07.624Z,2.31
2019-01-10T03:37:07.614Z,2.35
2019-01-10T03:38:07.599Z,2.35
2019-01-10T03:39:07.589Z,2.31
2019-01-10T03:40:07.597Z,2.30
2019-01-10T03:41:07.566Z,2.43
2019-01-10T03:42:07.554Z,2.36
2019-01-10T03:43:07.541Z,2.31
2019-01-10T03:44:07.534Z,2.31
2019-01-10T03:45:07.553Z,2.39
2019-01-10T03:46:07.509Z,2.36
2019-01-10T03:47:07.514Z,2.42
2019-01-10T03:48:07.500Z,2.31
2019-01-10T03:49:07.486Z,2.34
2019-01-10T03:50:07.465Z,2.36
2019-01-10T03:51:07.486Z,2.30
2019-01-10T03:52:07.443Z,2.30
2019-01-10T03:53:07.435Z,2.31
2019-01-10T03:54:07.420Z,2.27
2019-01-10T03:55:07.403Z,2.30
2019-01-10T03:56:07.432Z,2.18
2019-01-10T03:57:07.385Z,2.35
2019-01-10T03:58:07.381Z,2.27
2019-01-10T03:59:07.368Z,2.38
2019-01-10T04:00:07.364Z,2.23
2019-01-10T04:01:07.366Z,2.35
2019-01-10T04:02:07.337Z,2.36
2019-01-10T04:03:07.327Z,2.34
2019-01-10T04:04:07.312Z,2.28
2019-01-10T04:05:07.297Z,2.35
2019-01-10T04:06:07.305Z,2.31
2019-01-10T04:07:07.280Z,2.27
2019-01-10T04:08:07.259Z,2.31
2019-01-10T04:09:07.258Z,2.30
2019-01-10T04:10:07.249Z,2.28
2019-01-10T04:11:07.249Z,2.20
2019-01-10T04:12:07.225Z,2.21
2019-01-10T04:13:07.207Z,2.18
2019-01-10T04:14:07.207Z,2.14
2019-01-10T04:15:07.188Z,2.20
2019-01-10T04:16:07.192Z,2.20
2019-01-10T04:17:07.162Z,2.18
2019-01-10T04:18:07.156Z,2.17
2019-01-10T04:19:07.144Z,2.20
2019-01-10T04:20:07.130Z,2.34
2019-01-10T04:21:16.674Z,2.30
2019-01-10T04:22:08.107Z,2.20
2019-01-10T04:23:07.155Z,2.18
2019-01-10T04:24:07.091Z,2.24
2019-01-10T04:25:07.076Z,2.23
2019-01-10T04:26:07.186Z,2.28
2019-01-10T04:27:07.052Z,2.17
2019-01-10T04:28:07.051Z,2.17
2019-01-10T04:29:07.040Z,2.17
2019-01-10T04:30:07.022Z,2.17
2019-01-10T04:31:07.028Z,2.27
2019-01-10T04:32:06.998Z,2.21
2019-01-10T04:33:06.986Z,2.18
2019-01-10T04:34:06.973Z,2.20
2019-01-10T04:35:06.968Z,2.34
2019-01-10T04:36:06.981Z,2.36
2019-01-10T04:37:06.955Z,2.17
2019-01-10T04:38:06.933Z,2.20
2019-01-10T04:39:06.927Z,2.17
2019-01-10T04:40:06.913Z,2.18
2019-01-10T04:41:06.893Z,2.34
2019-01-10T04:42:06.912Z,2.30
2019-01-10T04:43:06.873Z,2.20
2019-01-10T04:44:07.501Z,2.17
2019-01-10T04:45:06.866Z,2.34
2019-01-10T04:46:06.838Z,2.23
2019-01-10T04:47:06.848Z,2.24
2019-01-10T04:48:06.822Z,2.20
2019-01-10T04:49:06.944Z,2.25
2019-01-10T04:50:06.798Z,2.28
2019-01-10T04:51:06.782Z,2.27
2019-01-10T04:52:06.795Z,2.14
2019-01-10T04:53:06.759Z,2.24
2019-01-10T04:54:06.747Z,2.14
2019-01-10T04:55:06.746Z,2.16
2019-01-10T04:56:06.735Z,2.12
2019-01-10T04:57:06.747Z,2.20
2019-01-10T04:58:06.702Z,2.16
2019-01-10T04:59:06.694Z,2.12
2019-01-10T05:00:06.683Z,2.17
2019-01-10T05:01:06.673Z,2.17
2019-01-10T05:02:06.678Z,2.12
2019-01-10T05:03:06.653Z,2.12
2019-01-10T05:04:06.638Z,2.12
2019-01-10T05:05:06.626Z,2.10
2019-01-10T05:06:06.612Z,2.00
2019-01-10T05:07:06.636Z,1.99
2019-01-10T05:08:06.595Z,1.99
2019-01-10T05:09:06.593Z,1.95
2019-01-10T05:10:06.571Z,2.03
2019-01-10T05:11:06.563Z,2.02
2019-01-10T05:12:06.570Z,2.03
2019-01-10T05:13:06.536Z,1.99
2019-01-10T05:14:06.548Z,2.05
2019-01-10T05:15:06.517Z,1.91
2019-01-10T05:16:06.519Z,2.06
2019-01-10T05:17:06.523Z,1.99
2019-01-10T05:18:08.137Z,2.02
2019-01-10T05:19:06.475Z,1.91
2019-01-10T05:20:06.462Z,1.90
2019-01-10T05:21:06.450Z,1.91
2019-01-10T05:22:06.439Z,2.02
2019-01-10T05:23:06.448Z,2.00
2019-01-10T05:24:06.420Z,1.99
2019-01-10T05:25:06.404Z,1.98
2019-01-10T05:26:06.397Z,2.05
2019-01-10T05:27:06.391Z,1.91
2019-01-10T05:28:06.389Z,1.95
2019-01-10T05:29:06.364Z,2.00
2019-01-10T05:30:06.353Z,1.95
2019-01-10T05:31:06.340Z,2.02
2019-01-10T05:32:06.329Z,1.95
2019-01-10T05:33:06.333Z,2.02
2019-01-10T05:34:06.309Z,1.98
2019-01-10T05:35:06.295Z,1.98
2019-01-10T05:36:06.288Z,1.99
2019-01-10T05:37:06.282Z,2.00
2019-01-10T05:38:06.286Z,2.02
2019-01-10T05:39:06.248Z,1.99
2019-01-10T05:40:06.236Z,1.95
2019-01-10T05:41:06.234Z,2.03
2019-01-10T05:42:06.218Z,2.05
2019-01-10T05:43:06.229Z,1.95
2019-01-10T05:44:06.198Z,2.03
2019-01-10T05:45:06.184Z,1.99
2019-01-10T05:46:06.172Z,2.02
2019-01-10T05:47:06.159Z,1.99
2019-01-10T05:48:06.171Z,1.98
2019-01-10T05:49:06.143Z,2.00
2019-01-10T05:50:06.128Z,1.99
2019-01-10T05:51:06.120Z,1.84
2019-01-10T05:52:06.115Z,1.98
2019-01-10T05:53:06.110Z,1.95
2019-01-10T05:54:06.086Z,2.00
2019-01-10T05:55:06.069Z,1.87
2019-01-10T05:56:15.071Z,1.98
2019-01-10T05:57:07.051Z,2.00
2019-01-10T05:58:06.074Z,1.93
2019-01-10T05:59:06.028Z,1.81
2019-01-10T06:00:06.016Z,1.84
2019-01-10T06:01:06.017Z,1.72
2019-01-10T06:02:06.000Z,1.79
2019-01-10T06:03:06.007Z,1.72
2019-01-10T06:04:05.970Z,1.79
2019-01-10T06:05:05.962Z,1.73
2019-01-10T06:06:05.949Z,1.70
2019-01-10T06:07:05.944Z,1.80
2019-01-10T06:08:05.946Z,1.73
2019-01-10T06:09:05.915Z,1.76
2019-01-10T06:10:05.905Z,1.73
2019-01-10T06:11:05.896Z,1.76
2019-01-10T06:12:05.884Z,1.77
2019-01-10T06:13:05.925Z,1.86
2019-01-10T06:14:05.870Z,1.79
2019-01-10T06:15:05.853Z,1.86
2019-01-10T06:16:05.844Z,1.83
2019-01-10T06:17:05.825Z,1.80
2019-01-10T06:18:05.827Z,1.87
2019-01-10T06:19:05.818Z,1.81
2019-01-10T06:20:05.796Z,1.80
2019-01-10T06:21:05.786Z,1.84
2019-01-10T06:22:05.769Z,1.79
2019-01-10T06:23:05.759Z,1.83
2019-01-10T06:24:05.767Z,1.76
2019-01-10T06:25:05.735Z,1.79
2019-01-10T06:26:05.733Z,1.77
2019-01-10T06:27:05.717Z,1.76
2019-01-10T06:28:05.716Z,1.77
2019-01-10T06:29:05.714Z,1.73
2019-01-10T06:30:05.679Z,1.70
2019-01-10T06:31:05.674Z,1.72
2019-01-10T06:32:05.656Z,1.63
2019-01-10T06:33:05.650Z,1.65
2019-01-10T06:34:06.564Z,1.65
2019-01-10T06:35:05.633Z,1.58
2019-01-10T06:36:05.623Z,1.66
2019-01-10T06:37:05.607Z,1.60
2019-01-10T06:38:05.592Z,1.65
2019-01-10T06:39:05.598Z,1.63
2019-01-10T06:40:05.573Z,1.66
2019-01-10T06:41:05.557Z,1.65
2019-01-10T06:42:05.596Z,1.68
2019-01-10T06:43:05.535Z,1.58
2019-01-10T06:44:05.539Z,1.59
2019-01-10T06:45:05.518Z,1.63
2019-01-10T06:46:05.502Z,1.68
2019-01-10T06:47:05.489Z,1.65
2019-01-10T06:48:05.481Z,1.66
2019-01-10T06:49:05.502Z,1.63
2019-01-10T06:50:05.466Z,1.69
2019-01-10T06:51:05.450Z,1.68
2019-01-10T06:52:05.446Z,1.62
2019-01-10T06:53:05.430Z,1.66
2019-01-10T06:54:05.420Z,1.69
2019-01-10T06:55:05.432Z,1.63
2019-01-10T06:56:05.394Z,1.70
2019-01-10T06:57:05.381Z,1.73
2019-01-10T06:58:05.369Z,1.70
2019-01-10T06:59:05.359Z,1.76
2019-01-10T07:00:05.383Z,1.76
2019-01-10T07:01:05.335Z,1.73
2019-01-10T07:02:06.962Z,1.69
2019-01-10T07:03:05.315Z,1.65
2019-01-10T07:04:05.341Z,1.60
2019-01-10T07:05:05.363Z,1.66
2019-01-10T07:06:05.281Z,1.63
2019-01-10T07:07:05.281Z,1.63
2019-01-10T07:08:05.260Z,1.62
2019-01-10T07:09:05.250Z,1.63
2019-01-10T07:10:05.259Z,1.66
2019-01-10T07:11:05.225Z,1.59
2019-01-10T07:12:05.277Z,1.69
2019-01-10T07:13:05.199Z,1.68
2019-01-10T07:14:05.200Z,1.62
2019-01-10T07:15:05.211Z,1.65
2019-01-10T07:16:05.172Z,1.62
2019-01-10T07:17:05.158Z,1.63
2019-01-10T07:18:05.148Z,1.63
2019-01-10T07:19:05.142Z,1.63
2019-01-10T07:20:05.147Z,1.73
2019-01-10T07:21:05.117Z,1.69
2019-01-10T07:22:05.109Z,1.77
2019-01-10T07:23:05.099Z,1.73
2019-01-10T07:24:05.082Z,1.70
2019-01-10T07:25:05.090Z,1.76
2019-01-10T07:26:05.064Z,1.73
2019-01-10T07:27:05.048Z,1.76
2019-01-10T07:28:05.042Z,1.58
2019-01-10T07:29:05.032Z,1.73
2019-01-10T07:30:05.046Z,1.66
2019-01-10T07:31:05.006Z,1.62
2019-01-10T07:32:04.991Z,1.63
2019-01-10T07:33:04.983Z,1.63
2019-01-10T07:34:04.981Z,1.65
2019-01-10T07:35:04.980Z,1.66
2019-01-10T07:36:04.958Z,1.63
2019-01-10T07:37:12.572Z,1.65
2019-01-10T07:38:05.926Z,1.62
2019-01-10T07:39:04.926Z,1.63
2019-01-10T07:40:04.931Z,1.66
2019-01-10T07:41:04.909Z,1.65
2019-01-10T07:42:04.892Z,1.68
2019-01-10T07:43:04.877Z,1.62
2019-01-10T07:44:04.861Z,1.65
2019-01-10T07:45:04.858Z,1.62
2019-01-10T07:46:04.865Z,1.73
2019-01-10T07:47:04.836Z,1.60
2019-01-10T07:48:04.837Z,1.72
2019-01-10T07:49:04.807Z,1.73
2019-01-10T07:50:04.791Z,1.73
2019-01-10T07:51:04.800Z,1.66
2019-01-10T07:52:04.776Z,1.63
2019-01-10T07:53:04.766Z,1.65
2019-01-10T07:54:04.871Z,1.63
2019-01-10T07:55:04.749Z,1.73
2019-01-10T07:56:04.758Z,1.77
2019-01-10T07:57:04.721Z,1.76
2019-01-10T07:58:04.708Z,1.63
2019-01-10T07:59:04.694Z,1.69
2019-01-10T08:00:04.687Z,1.66
2019-01-10T08:01:04.686Z,1.62
2019-01-10T08:02:04.671Z,1.70
2019-01-10T08:03:04.648Z,1.73
2019-01-10T08:04:04.637Z,1.73
2019-01-10T08:05:04.632Z,1.72
2019-01-10T08:06:04.794Z,1.72
2019-01-10T08:07:04.602Z,1.81
2019-01-10T08:08:04.590Z,1.76
2019-01-10T08:09:04.588Z,1.83
2019-01-10T08:10:04.568Z,1.87
2019-01-10T08:11:04.576Z,1.80
2019-01-10T08:12:04.548Z,1.83
2019-01-10T08:13:04.539Z,1.79
2019-01-10T08:14:04.525Z,1.79
2019-01-10T08:15:11.759Z,1.81
2019-01-10T08:16:05.521Z,1.79
2019-01-10T08:17:04.498Z,1.77
2019-01-10T08:18:04.483Z,1.73
2019-01-10T08:19:04.479Z,1.80
2019-01-10T08:20:04.476Z,1.77
2019-01-10T08:21:04.470Z,1.83
2019-01-10T08:22:04.718Z,1.88
2019-01-10T08:23:04.435Z,1.87
2019-01-10T08:24:04.416Z,1.79
2019-01-10T08:25:04.406Z,1.76
2019-01-10T08:26:04.438Z,1.86
2019-01-10T08:27:04.409Z,1.86
2019-01-10T08:28:04.371Z,1.76
2019-01-10T08:29:04.358Z,1.80
2019-01-10T08:30:04.352Z,1.79
2019-01-10T08:31:04.339Z,1.77
2019-01-10T08:32:04.437Z,1.80
2019-01-10T08:33:04.314Z,1.83
2019-01-10T08:34:04.308Z,1.79
2019-01-10T08:35:04.291Z,1.79
2019-01-10T08:36:04.292Z,1.79
2019-01-10T08:37:04.285Z,1.80
2019-01-10T08:38:04.258Z,1.80
2019-01-10T08:39:04.257Z,1.77
2019-01-10T08:40:04.249Z,1.76
2019-01-10T08:41:04.227Z,1.81
2019-01-10T08:42:04.232Z,1.80
2019-01-10T08:43:04.201Z,1.81
2019-01-10T08:44:04.197Z,1.88
2019-01-10T08:45:04.193Z,1.95
2019-01-10T08:46:04.171Z,1.98
2019-01-10T08:47:04.265Z,1.91
2019-01-10T08:48:04.147Z,2.00
2019-01-10T08:49:04.138Z,1.83
2019-01-10T08:50:04.124Z,1.81
2019-01-10T08:51:04.123Z,1.76
2019-01-10T08:52:04.124Z,1.76
2019-01-10T08:53:04.094Z,1.79
2019-01-10T08:54:04.080Z,1.84
2019-01-10T08:55:04.076Z,1.79
2019-01-10T08:56:04.073Z,1.86
2019-01-10T08:57:04.077Z,1.80
2019-01-10T08:58:04.036Z,1.84
2019-01-10T08:59:04.039Z,1.73
2019-01-10T09:00:04.020Z,1.79
2019-01-10T09:01:04.004Z,1.79
2019-01-10T09:02:04.022Z,1.80
2019-01-10T09:03:03.988Z,1.81
2019-01-10T09:04:04.011Z,1.80
2019-01-10T09:05:03.955Z,1.88
2019-01-10T09:06:08.275Z,1.84
2019-01-10T09:07:03.941Z,1.86
2019-01-10T09:08:03.974Z,1.98
2019-01-10T09:09:03.911Z,1.87
2019-01-10T09:10:03.944Z,2.02
2019-01-10T09:11:03.889Z,1.99
2019-01-10T09:12:03.881Z,1.99
2019-01-10T09:13:03.897Z,2.00
2019-01-10T09:14:04.813Z,2.09
2019-01-10T09:15:03.847Z,2.12
2019-01-10T09:16:03.830Z,2.12
2019-01-10T09:17:03.829Z,2.17
2019-01-10T09:18:03.836Z,2.24
2019-01-10T09:19:03.811Z,2.21
2019-01-10T09:20:03.791Z,2.20
2019-01-10T09:21:04.337Z,2.25
2019-01-10T09:22:03.775Z,2.23
2019-01-10T09:23:03.776Z,2.18
2019-01-10T09:24:03.745Z,2.27
2019-01-10T09:25:03.733Z,2.24
2019-01-10T09:26:03.723Z,2.20
2019-01-10T09:27:03.723Z,2.21
2019-01-10T09:28:03.729Z,2.24
2019-01-10T09:29:03.695Z,2.25
2019-01-10T09:30:03.690Z,2.24
2019-01-10T09:31:03.674Z,2.28
2019-01-10T09:32:03.663Z,2.23
2019-01-10T09:33:03.661Z,2.12
2019-01-10T09:34:03.642Z,2.17
2019-01-10T09:35:03.629Z,2.06
2019-01-10T09:36:03.618Z,2.07
2019-01-10T09:37:03.948Z,2.10
2019-01-10T09:38:03.610Z,1.98
2019-01-10T09:39:03.580Z,2.00
2019-01-10T09:40:03.564Z,2.09
2019-01-10T09:41:03.559Z,2.06
2019-01-10T09:42:03.555Z,2.12
2019-01-10T09:43:03.556Z,2.10
2019-01-10T09:44:03.522Z,2.21
2019-01-10T09:45:03.515Z,2.12
2019-01-10T09:46:03.508Z,2.09
2019-01-10T09:47:03.552Z,2.07
2019-01-10T09:48:03.510Z,2.14
2019-01-10T09:49:03.467Z,2.03
2019-01-10T09:50:03.462Z,2.07
2019-01-10T09:51:03.459Z,2.09
2019-01-10T09:52:03.443Z,2.14
2019-01-10T09:53:03.421Z,2.16
2019-01-10T09:54:03.429Z,2.17
2019-01-10T09:55:03.403Z,2.06
2019-01-10T09:56:03.390Z,2.09
2019-01-10T09:57:03.378Z,2.10
2019-01-10T09:58:03.370Z,2.06
2019-01-10T09:59:03.390Z,2.07
2019-01-10T10:00:03.351Z,2.12
2019-01-10T10:01:03.339Z,2.12
2019-01-10T10:02:03.326Z,2.12
2019-01-10T10:03:03.332Z,2.21
2019-01-10T10:04:03.322Z,2.23
2019-01-10T10:05:03.295Z,2.12
2019-01-10T10:06:07.878Z,2.16
2019-01-10T10:07:03.267Z,2.23
2019-01-10T10:08:03.258Z,2.18
2019-01-10T10:09:03.271Z,2.23
2019-01-10T10:10:03.235Z,2.16
2019-01-10T10:11:03.252Z,2.25
2019-01-10T10:12:03.224Z,2.30
2019-01-10T10:13:03.205Z,2.24
2019-01-10T10:14:03.237Z,2.21
2019-01-10T10:15:03.183Z,2.23
2019-01-10T10:16:03.191Z,2.18
2019-01-10T10:17:03.164Z,2.25
2019-01-10T10:18:03.147Z,2.25
2019-01-10T10:19:03.166Z,2.25
2019-01-10T10:20:03.137Z,2.18
2019-01-10T10:21:03.114Z,2.25
2019-01-10T10:22:03.110Z,2.35
2019-01-10T10:23:03.099Z,2.21
2019-01-10T10:24:03.103Z,2.23
2019-01-10T10:25:03.074Z,2.23
2019-01-10T10:26:03.086Z,2.30
2019-01-10T10:27:03.046Z,2.31
2019-01-10T10:28:03.038Z,2.30
2019-01-10T10:29:03.244Z,2.46
2019-01-10T10:30:03.017Z,2.56
2019-01-10T10:31:03.002Z,2.63
2019-01-10T10:32:02.993Z,2.64
2019-01-10T10:33:02.978Z,2.71
2019-01-10T10:34:02.987Z,2.74
2019-01-10T10:35:02.966Z,2.72
2019-01-10T10:36:02.954Z,2.63
2019-01-10T10:37:02.941Z,2.79
2019-01-10T10:38:02.926Z,2.82
2019-01-10T10:39:02.912Z,2.79
2019-01-10T10:40:02.913Z,2.90
2019-01-10T10:41:02.889Z,3.06
2019-01-10T10:42:02.893Z,3.21
2019-01-10T10:43:02.865Z,3.21
2019-01-10T10:44:02.870Z,3.08
2019-01-10T10:45:02.857Z,3.11
2019-01-10T10:46:02.835Z,3.13
2019-01-10T10:47:02.873Z,3.13
2019-01-10T10:48:02.998Z,3.32
2019-01-10T10:49:02.801Z,3.39
2019-01-10T10:50:02.805Z,3.79
2019-01-10T10:51:02.787Z,4.44
2019-01-10T10:52:02.768Z,3.98
2019-01-10T10:53:02.748Z,3.96
2019-01-10T10:54:02.740Z,4.80
2019-01-10T10:55:02.755Z,5.03
2019-01-10T10:56:02.719Z,5.28
2019-01-10T10:57:02.710Z,4.72
2019-01-10T10:58:02.695Z,4.96
2019-01-10T10:59:02.691Z,5.15
2019-01-10T11:00:02.692Z,5.96
2019-01-10T11:01:02.694Z,7.37
2019-01-10T11:02:02.655Z,8.28
2019-01-10T11:03:02.641Z,8.55
2019-01-10T11:04:02.666Z,9.39
2019-01-10T11:05:02.652Z,10.09
2019-01-10T11:06:02.619Z,10.32
2019-01-10T11:07:02.604Z,11.14
2019-01-10T11:08:02.585Z,11.35
2019-01-10T11:09:09.019Z,10.88
2019-01-10T11:10:03.574Z,9.89
2019-01-10T11:11:02.549Z,10.68
2019-01-10T11:12:02.537Z,11.36
2019-01-10T11:13:02.526Z,10.51
2019-01-10T11:14:02.516Z,11.11
2019-01-10T11:15:02.544Z,10.30
2019-01-10T11:16:10.252Z,8.89
2019-01-10T11:17:03.479Z,8.18
2019-01-10T11:18:02.469Z,7.74
2019-01-10T11:19:02.457Z,6.92
2019-01-10T11:20:02.507Z,6.38
2019-01-10T11:21:02.442Z,5.94
2019-01-10T11:22:02.434Z,5.53
2019-01-10T11:23:10.522Z,5.25
2019-01-10T11:24:03.402Z,5.06
2019-01-10T11:25:02.427Z,4.92
2019-01-10T11:26:02.377Z,4.65
2019-01-10T11:27:02.369Z,4.63
2019-01-10T11:28:02.356Z,5.24
2019-01-10T11:29:02.346Z,6.09
2019-01-10T11:30:02.808Z,5.78
2019-01-10T11:31:02.325Z,5.13
2019-01-10T11:32:02.318Z,4.77
2019-01-10T11:33:02.301Z,4.51
2019-01-10T11:34:02.292Z,4.30
2019-01-10T11:35:02.296Z,4.27
2019-01-10T11:36:02.264Z,4.15
2019-01-10T11:37:02.254Z,4.40
2019-01-10T11:38:02.263Z,4.44
2019-01-10T11:39:02.236Z,4.36
2019-01-10T11:40:02.233Z,4.54
2019-01-10T11:41:02.231Z,4.94
2019-01-10T11:42:02.199Z,5.30
2019-01-10T11:43:02.204Z,5.65
2019-01-10T11:44:02.176Z,5.33
2019-01-10T11:45:02.166Z,4.96
2019-01-10T11:46:02.185Z,4.70
2019-01-10T11:47:02.152Z,4.41
2019-01-10T11:48:02.128Z,4.42
2019-01-10T11:49:02.121Z,4.51
2019-01-10T11:50:02.114Z,4.62
2019-01-10T11:51:02.129Z,4.52
2019-01-10T11:52:02.094Z,4.73
2019-01-10T11:53:02.073Z,4.89
2019-01-10T11:54:02.062Z,4.62
2019-01-10T11:55:02.062Z,4.52
2019-01-10T11:56:02.061Z,4.30
2019-01-10T11:57:02.036Z,4.06
2019-01-10T11:58:02.020Z,3.97
2019-01-10T11:59:02.013Z,3.80
2019-01-10T12:00:01.991Z,3.80
2019-01-10T12:01:02.004Z,3.70
2019-01-10T12:02:01.974Z,3.72
2019-01-10T12:03:01.964Z,3.70
2019-01-10T12:04:01.953Z,3.66
2019-01-10T12:05:01.959Z,3.52
2019-01-10T12:06:01.983Z,3.58
2019-01-10T12:07:01.918Z,3.58
2019-01-10T12:08:01.954Z,3.52
2019-01-10T12:09:01.913Z,3.47
2019-01-10T12:10:01.894Z,3.33
2019-01-10T12:11:01.920Z,3.32
2019-01-10T12:12:01.866Z,3.28
2019-01-10T12:13:01.856Z,3.23
2019-01-10T12:14:01.889Z,3.23
2019-01-10T12:15:01.839Z,3.28
2019-01-10T12:16:01.869Z,3.21
2019-01-10T12:17:01.828Z,3.26
2019-01-10T12:18:01.833Z,3.28
2019-01-10T12:19:01.793Z,3.28
2019-01-10T12:20:01.778Z,3.18
2019-01-10T12:21:01.796Z,3.24
2019-01-10T12:22:01.750Z,3.31
2019-01-10T12:23:01.760Z,3.36
2019-01-10T12:24:01.736Z,3.36
2019-01-10T12:25:01.716Z,3.47
2019-01-10T12:26:01.707Z,3.70
2019-01-10T12:27:01.725Z,3.58
2019-01-10T12:28:01.691Z,3.55
2019-01-10T12:29:01.673Z,3.58
2019-01-10T12:30:01.664Z,3.50
2019-01-10T12:31:01.656Z,3.47
2019-01-10T12:32:01.660Z,3.47
2019-01-10T12:33:01.637Z,3.40
2019-01-10T12:34:01.638Z,3.29
2019-01-10T12:35:01.608Z,3.42
2019-01-10T12:36:01.605Z,3.35
2019-01-10T12:37:01.600Z,3.28
2019-01-10T12:38:01.571Z,3.23
2019-01-10T12:39:03.517Z,3.21
2019-01-10T12:40:01.545Z,3.18
2019-01-10T12:41:01.555Z,3.11
2019-01-10T12:42:01.551Z,3.08
2019-01-10T12:43:01.512Z,3.13
2019-01-10T12:44:01.504Z,3.24
2019-01-10T12:45:01.500Z,3.36
2019-01-10T12:46:01.486Z,3.47
2019-01-10T12:47:01.783Z,3.58
2019-01-10T12:48:01.696Z,3.68
2019-01-10T12:49:01.452Z,3.66
2019-01-10T12:50:01.476Z,3.78
2019-01-10T12:51:01.427Z,3.78
2019-01-10T12:52:01.425Z,3.70
2019-01-10T12:53:01.408Z,3.78
2019-01-10T12:54:01.386Z,3.76
2019-01-10T12:55:01.383Z,3.78
2019-01-10T12:56:01.566Z,3.75
2019-01-10T12:57:01.387Z,3.65
2019-01-10T12:58:01.356Z,3.62
2019-01-10T12:59:01.343Z,3.58
2019-01-10T13:00:01.344Z,3.48
2019-01-10T13:01:01.352Z,3.33
2019-01-10T13:02:02.278Z,3.31
2019-01-10T13:03:01.291Z,3.23
2019-01-10T13:04:01.294Z,3.26
2019-01-10T13:05:01.277Z,3.21
2019-01-10T13:06:01.260Z,3.20
2019-01-10T13:07:01.270Z,3.00
2019-01-10T13:08:03.696Z,2.95
2019-01-10T13:09:01.237Z,3.03
2019-01-10T13:10:01.238Z,2.92
2019-01-10T13:11:01.327Z,2.93
2019-01-10T13:12:01.190Z,3.03
2019-01-10T13:13:01.249Z,3.13
2019-01-10T13:14:01.189Z,3.23
2019-01-10T13:15:01.150Z,3.31
2019-01-10T13:16:01.154Z,3.36
2019-01-10T13:17:01.134Z,3.33
2019-01-10T13:18:01.143Z,3.45